createdAt,value
2022-10-26T00:03:52.033Z,13.74
2022-10-26T00:08:08.813Z,13.68
2022-10-26T00:12:25.635Z,13.77
2022-10-26T00:16:41.812Z,13.86
2022-10-26T00:21:02.846Z,13.63
2022-10-26T00:25:18.987Z,13.74
2022-10-26T00:29:35.169Z,13.40
2022-10-26T00:33:55.666Z,13.55
2022-10-26T00:38:11.763Z,13.80
2022-10-26T00:42:27.885Z,13.66
2022-10-26T00:46:44.082Z,13.50
2022-10-26T00:51:02.652Z,13.42
2022-10-26T00:55:21.568Z,13.09
2022-10-26T00:59:37.805Z,13.07
2022-10-26T01:03:54.077Z,13.50
2022-10-26T01:08:10.891Z,13.55
2022-10-26T01:12:27.072Z,13.10
2022-10-26T01:16:49.244Z,13.09
2022-10-26T01:21:08.374Z,13.10
2022-10-26T01:25:51.544Z,12.84
2022-10-26T01:30:36.287Z,12.98
2022-10-26T01:35:05.328Z,13.03
2022-10-26T01:39:55.316Z,13.19
2022-10-26T01:44:49.845Z,13.20
2022-10-26T01:49:12.159Z,12.94
2022-10-26T01:53:31.695Z,12.83
2022-10-26T01:57:51.599Z,12.91
2022-10-26T02:02:49.612Z,12.92
2022-10-26T02:07:36.916Z,13.05
2022-10-26T02:11:54.095Z,13.20
2022-10-26T02:16:38.314Z,13.20
2022-10-26T02:20:57.856Z,13.17
2022-10-26T02:25:23.856Z,13.09
2022-10-26T02:29:41.638Z,13.00
2022-10-26T02:34:00.273Z,13.23
2022-10-26T02:38:18.111Z,13.11
2022-10-26T02:42:34.695Z,12.95
2022-10-26T02:46:51.989Z,12.87
2022-10-26T02:51:30.196Z,12.34
2022-10-26T02:55:50.956Z,12.53
2022-10-26T03:00:16.701Z,12.47
2022-10-26T03:04:34.510Z,12.75
2022-10-26T03:08:51.066Z,12.69
2022-10-26T03:13:07.239Z,12.67
2022-10-26T03:17:23.302Z,12.35
2022-10-26T03:21:39.415Z,12.70
2022-10-26T03:26:01.409Z,13.00
2022-10-26T03:30:17.645Z,12.74
2022-10-26T03:34:33.784Z,13.02
2022-10-26T03:38:49.969Z,12.95
2022-10-26T03:43:06.127Z,12.43
2022-10-26T03:47:22.213Z,12.24
2022-10-26T03:51:38.344Z,11.94
2022-10-26T03:55:54.455Z,11.75
2022-10-26T04:00:17.876Z,11.90
2022-10-26T04:04:33.902Z,12.52
2022-10-26T04:08:50.033Z,12.56
2022-10-26T04:13:06.215Z,12.33
2022-10-26T04:17:22.324Z,12.26
2022-10-26T04:21:38.491Z,12.72
2022-10-26T04:25:54.587Z,12.75
2022-10-26T04:30:11.186Z,12.51
2022-10-26T04:34:27.291Z,12.85
2022-10-26T04:38:43.405Z,12.74
2022-10-26T04:42:59.654Z,12.48
2022-10-26T04:47:15.748Z,12.46
2022-10-26T04:51:31.844Z,12.56
2022-10-26T04:55:48.010Z,12.11
2022-10-26T05:00:05.491Z,12.34
2022-10-26T05:04:21.652Z,12.36
2022-10-26T05:08:37.778Z,12.42
2022-10-26T05:12:58.356Z,11.60
2022-10-26T05:17:14.516Z,11.90
2022-10-26T05:21:31.053Z,11.90
2022-10-26T05:25:47.974Z,11.86
2022-10-26T05:30:04.202Z,11.83
2022-10-26T05:34:20.299Z,11.63
2022-10-26T05:38:36.504Z,12.02
2022-10-26T05:42:53.062Z,12.12
2022-10-26T05:47:09.310Z,12.20
2022-10-26T05:51:25.454Z,12.62
2022-10-26T05:55:42.177Z,12.95
2022-10-26T05:59:58.653Z,12.79
2022-10-26T06:04:48.111Z,12.46
2022-10-26T06:09:04.580Z,12.58
2022-10-26T06:13:21.398Z,12.24
2022-10-26T06:18:02.099Z,12.13
2022-10-26T06:22:59.569Z,12.16
2022-10-26T06:27:39.922Z,12.14
2022-10-26T06:31:56.112Z,12.19
2022-10-26T06:36:27.675Z,12.49
2022-10-26T06:40:46.257Z,11.89
2022-10-26T06:45:02.797Z,11.17
2022-10-26T06:49:40.159Z,11.58
2022-10-26T06:54:25.502Z,11.73
2022-10-26T06:58:42.013Z,11.93
2022-10-26T07:02:59.316Z,12.21
2022-10-26T07:07:18.339Z,12.24
2022-10-26T07:11:34.435Z,12.32
2022-10-26T07:15:50.494Z,12.64
2022-10-26T07:20:07.051Z,12.86
2022-10-26T07:24:24.271Z,12.91
2022-10-26T07:28:40.394Z,12.68
2022-10-26T07:33:04.996Z,13.19
2022-10-26T07:37:21.108Z,11.70
2022-10-26T07:41:37.315Z,11.27
2022-10-26T07:45:53.469Z,12.30
2022-10-26T07:50:12.165Z,12.12
2022-10-26T07:54:28.267Z,12.67
2022-10-26T07:58:44.414Z,12.05
2022-10-26T08:03:00.482Z,12.05
2022-10-26T08:07:16.762Z,12.71
2022-10-26T08:11:33.403Z,12.90
2022-10-26T08:15:49.559Z,12.32
2022-10-26T08:20:06.146Z,11.77
2022-10-26T08:24:22.262Z,11.83
2022-10-26T08:28:39.154Z,12.95
2022-10-26T08:33:06.382Z,12.83
2022-10-26T08:37:23.131Z,12.95
2022-10-26T08:41:45.321Z,13.72
2022-10-26T08:46:09.628Z,13.93
2022-10-26T08:50:52.831Z,14.28
2022-10-26T08:55:14.687Z,14.68
2022-10-26T08:59:52.816Z,15.00
2022-10-26T09:04:13.346Z,14.58
2022-10-26T09:09:01.062Z,14.26
2022-10-26T09:13:34.202Z,13.73
2022-10-26T09:18:02.285Z,14.53
2022-10-26T09:22:23.297Z,14.36
2022-10-26T09:26:51.037Z,15.24
2022-10-26T09:31:09.707Z,16.29
2022-10-26T09:35:46.767Z,15.82
2022-10-26T09:40:15.314Z,15.97
2022-10-26T09:44:55.264Z,16.15
2022-10-26T09:49:13.207Z,17.00
2022-10-26T09:53:29.400Z,16.89
2022-10-26T09:57:51.405Z,17.25
2022-10-26T10:02:36.264Z,17.13
2022-10-26T10:07:04.527Z,16.91
2022-10-26T10:11:20.665Z,17.04
2022-10-26T10:15:37.349Z,17.04
2022-10-26T10:19:53.809Z,17.46
2022-10-26T10:24:33.412Z,17.41
2022-10-26T10:29:01.189Z,17.90
2022-10-26T10:33:17.313Z,18.11
2022-10-26T10:37:38.938Z,17.55
2022-10-26T10:41:55.042Z,17.89
2022-10-26T10:46:17.715Z,17.83
2022-10-26T10:51:33.307Z,17.62
2022-10-26T10:55:55.584Z,18.44
2022-10-26T11:00:12.626Z,18.77
2022-10-26T11:04:45.109Z,19.31
2022-10-26T11:09:08.305Z,19.67
2022-10-26T11:13:26.047Z,19.96
2022-10-26T11:18:14.019Z,20.04
2022-10-26T11:22:37.980Z,20.15
2022-10-26T11:27:20.541Z,20.42
2022-10-26T11:31:44.380Z,19.50
2022-10-26T11:36:16.139Z,20.92
2022-10-26T11:41:02.115Z,20.68
2022-10-26T11:45:42.856Z,20.42
2022-10-26T11:50:07.223Z,20.01
2022-10-26T11:54:36.119Z,19.52
2022-10-26T11:58:52.691Z,20.13
2022-10-26T12:03:12.480Z,19.68
2022-10-26T12:07:32.624Z,19.57
2022-10-26T12:11:58.950Z,19.45
2022-10-26T12:16:35.565Z,18.51
2022-10-26T12:20:51.657Z,18.52
2022-10-26T12:25:17.195Z,18.00
2022-10-26T12:29:37.237Z,18.17
2022-10-26T12:33:53.589Z,18.47
2022-10-26T12:38:26.159Z,18.66
2022-10-26T12:42:43.904Z,18.28
2022-10-26T12:47:00.024Z,18.50
2022-10-26T12:51:19.018Z,18.25
2022-10-26T12:55:49.942Z,18.02
2022-10-26T13:00:13.208Z,18.61
2022-10-26T13:04:29.181Z,18.76
2022-10-26T13:08:49.207Z,19.31
2022-10-26T13:13:08.176Z,19.82
2022-10-26T13:17:30.348Z,19.68
2022-10-26T13:21:49.123Z,19.51
2022-10-26T13:26:17.512Z,20.35
2022-10-26T13:30:47.049Z,20.38
2022-10-26T13:35:03.975Z,21.71
2022-10-26T13:39:56.233Z,21.34
2022-10-26T13:44:25.173Z,20.24
2022-10-26T13:48:46.093Z,20.46
2022-10-26T13:53:13.549Z,20.53
2022-10-26T13:57:39.604Z,19.97
2022-10-26T14:02:23.939Z,19.67
2022-10-26T14:06:40.446Z,19.46
2022-10-26T14:10:59.466Z,20.55
2022-10-26T14:15:24.117Z,20.57
2022-10-26T14:19:41.551Z,20.71
2022-10-26T14:24:07.735Z,20.47
2022-10-26T14:28:29.286Z,19.84
2022-10-26T14:32:45.405Z,20.04
2022-10-26T14:37:05.157Z,20.47
2022-10-26T14:41:22.326Z,20.36
2022-10-26T14:45:54.906Z,20.10
2022-10-26T14:50:22.280Z,19.84
2022-10-26T14:54:38.377Z,19.81
2022-10-26T14:58:55.410Z,20.20
2022-10-26T15:03:17.199Z,19.67
2022-10-26T15:07:37.872Z,19.65
2022-10-26T15:11:54.086Z,19.58
2022-10-26T15:16:25.693Z,19.73
2022-10-26T15:20:49.360Z,19.23
2022-10-26T15:25:06.236Z,19.17
2022-10-26T15:29:44.985Z,19.11
2022-10-26T15:34:13.128Z,19.12
2022-10-26T15:38:31.914Z,18.96
2022-10-26T15:42:55.725Z,18.92
2022-10-26T15:47:18.786Z,18.58
2022-10-26T15:51:35.375Z,18.68
2022-10-26T15:55:53.184Z,18.44
2022-10-26T16:00:14.763Z,18.39
2022-10-26T16:04:30.910Z,18.60
2022-10-26T16:08:50.913Z,18.72
2022-10-26T16:13:12.479Z,18.82
2022-10-26T16:17:28.622Z,18.51
2022-10-26T16:21:45.225Z,18.63
2022-10-26T16:26:03.969Z,18.94
2022-10-26T16:30:21.139Z,18.78
2022-10-26T16:34:37.263Z,18.94
2022-10-26T16:38:53.885Z,18.76
2022-10-26T16:43:10.370Z,18.57
2022-10-26T16:47:27.411Z,18.53
2022-10-26T16:51:43.550Z,18.37
2022-10-26T16:56:08.071Z,18.12
2022-10-26T17:00:24.209Z,18.23
2022-10-26T17:04:40.348Z,18.15
2022-10-26T17:08:57.074Z,17.97
2022-10-26T17:13:13.265Z,18.18
2022-10-26T17:17:29.478Z,17.93
2022-10-26T17:21:45.718Z,18.08
2022-10-26T17:26:03.652Z,17.95
2022-10-26T17:30:19.781Z,17.99
2022-10-26T17:34:35.938Z,17.98
2022-10-26T17:38:54.353Z,17.66
2022-10-26T17:43:11.249Z,17.49
2022-10-26T17:47:27.399Z,17.66
2022-10-26T17:51:43.528Z,17.49
2022-10-26T17:56:05.986Z,17.43
2022-10-26T18:00:22.229Z,17.04
2022-10-26T18:04:38.296Z,17.37
2022-10-26T18:08:56.466Z,17.07
2022-10-26T18:13:12.545Z,16.94
2022-10-26T18:17:28.732Z,17.15
2022-10-26T18:21:44.792Z,17.16
2022-10-26T18:26:22.793Z,17.21
2022-10-26T18:30:39.178Z,17.38
2022-10-26T18:34:55.303Z,16.95
2022-10-26T18:39:11.418Z,16.66
2022-10-26T18:43:28.563Z,16.87
2022-10-26T18:47:44.732Z,17.02
2022-10-26T18:52:01.141Z,17.04
2022-10-26T18:56:19.584Z,17.12
2022-10-26T19:00:35.745Z,16.64
2022-10-26T19:04:53.893Z,16.86
2022-10-26T19:09:11.639Z,16.21
2022-10-26T19:13:27.772Z,16.31
2022-10-26T19:17:44.026Z,16.38
2022-10-26T19:22:01.206Z,16.30
2022-10-26T19:26:33.190Z,16.42
2022-10-26T19:30:54.718Z,16.41
2022-10-26T19:35:12.338Z,16.60
2022-10-26T19:39:28.462Z,16.07
2022-10-26T19:43:45.393Z,16.08
2022-10-26T19:48:01.582Z,16.36
2022-10-26T19:56:36.174Z,16.02
2022-10-26T20:05:16.706Z,16.27
2022-10-26T20:09:33.028Z,16.35
2022-10-26T20:13:49.326Z,16.21
2022-10-26T20:18:05.852Z,15.84
2022-10-26T20:22:22.060Z,16.05
2022-10-26T20:26:38.675Z,16.31
2022-10-26T20:30:54.832Z,15.95
2022-10-26T20:35:13.303Z,15.94
2022-10-26T20:39:30.278Z,16.00
2022-10-26T20:43:51.377Z,15.94
2022-10-26T20:48:14.152Z,15.56
2022-10-26T20:52:40.979Z,15.95
2022-10-26T20:56:59.945Z,15.58
2022-10-26T21:01:34.992Z,15.98
2022-10-26T21:05:51.358Z,15.75
2022-10-26T21:10:07.936Z,15.73
2022-10-26T21:14:24.417Z,15.64
2022-10-26T21:18:40.593Z,16.04
2022-10-26T21:22:56.694Z,16.30
2022-10-26T21:27:12.967Z,15.55
2022-10-26T21:31:30.065Z,15.75
2022-10-26T21:35:55.396Z,15.74
2022-10-26T21:40:12.115Z,15.99
2022-10-26T21:44:44.061Z,15.58
2022-10-26T21:49:02.290Z,15.86
2022-10-26T21:53:18.661Z,15.84
2022-10-26T21:57:34.829Z,15.49
2022-10-26T22:01:51.081Z,15.67
2022-10-26T22:06:08.393Z,15.34
2022-10-26T22:10:24.526Z,15.59
2022-10-26T22:14:40.781Z,15.50
2022-10-26T22:18:59.774Z,15.57
2022-10-26T22:23:15.921Z,15.40
2022-10-26T22:27:32.080Z,15.44
2022-10-26T22:31:48.235Z,15.41
2022-10-26T22:36:05.907Z,15.72
2022-10-26T22:40:22.034Z,15.55
2022-10-26T22:44:38.125Z,15.19
2022-10-26T22:48:59.675Z,15.35
2022-10-26T22:53:15.773Z,15.38
2022-10-26T22:57:32.384Z,15.33
2022-10-26T23:01:48.789Z,15.67
2022-10-26T23:06:09.480Z,15.29
2022-10-26T23:10:25.794Z,15.41
2022-10-26T23:14:41.897Z,15.74
2022-10-26T23:18:58.814Z,15.51
2022-10-26T23:23:14.938Z,15.49
2022-10-26T23:27:31.074Z,15.23
2022-10-26T23:31:47.314Z,15.17
2022-10-26T23:36:03.546Z,15.29
2022-10-26T23:40:19.705Z,15.43
2022-10-26T23:44:35.936Z,15.15
2022-10-26T23:48:52.254Z,14.85
2022-10-26T23:53:08.378Z,15.16
2022-10-26T23:57:24.632Z,15.50
